Aviation Digital Data Service (ADDS)

Output produced by TAFs form (1716 UTC 03 July 2015)
found at http://aviationweather.gov/adds/tafs/
 
KGUP 031129Z 0312/0412 11004KT P6SM BKN200 
     FM031800 20007KT P6SM VCSH BKN070 
     FM032100 21009KT P6SM VCTS BKN070CB 
     FM040100 20007KT P6SM VCSH BKN070 
     FM040600 17003KT P6SM BKN120